Elmwood, Oklahoma
Current Conditions -  °F | °C
As of 8:55 AM on Thursday 23 Oct 2014 (Local Time) from KPYX Reporting Station
Clear Clear  
Wind Chill: 58°   Ceiling: Unl
Heat Index: 58°   Visibility: 2.5mi
Dew Point: 57°   Wind: 10mph
Humidity: 96%   Direction: 210°SSW
Pressure: 30.09"   Gusts: NA
Location:  36.7319°N, 100.575°W
Report Text: KPYX 231355Z AUTO 21009KT 2 1/2SM CLR 15/14 A3009 RMK AO2 T01460140
Loading
Personal Weather Stations






























Interactive Weather Map
Tropical Storm Tracking
New forecast layout! Learn more

10-Day Weather Forecast

Advertisements
Track Severe Weather on mobile